Time;durP1;ratioP1;P1;durP2;ratioP2;P2;SDS_P1;SDS_P2;PMS_P1;PMS_P2;Temp;Humidity;BMP_temperature;BMP_pressure;BME280_temperature;BME280_humidity;BME280_pressure;Samples;Min_cycle;Max_cycle;Signal;HPM_P1;HPM_P2
2023/02/02 00:01:57;;;;;;;20.60;3.00;;;4.60;99.90;;;;;;14845929;23;20077;-86
2023/02/02 00:07:59;;;;;;;15.35;2.38;;;4.60;99.90;;;;;;14849382;24;20454;-86
2023/02/02 00:14:01;;;;;;;19.27;2.05;;;4.60;99.90;;;;;;14850083;23;20024;-86
2023/02/02 00:20:03;;;;;;;12.27;2.47;;;4.60;99.90;;;;;;14852687;23;20039;-86
2023/02/02 00:26:05;;;;;;;14.00;2.17;;;4.50;99.90;;;;;;14849850;24;20116;-86
2023/02/02 00:32:07;;;;;;;17.90;2.58;;;4.50;99.90;;;;;;14847227;23;20032;-86
2023/02/02 00:38:09;;;;;;;17.27;2.33;;;4.50;99.90;;;;;;14849855;23;20108;-86
2023/02/02 00:50:31;;;;;;;14.30;2.15;;;4.40;99.90;;;;;;14848061;23;20024;-85
2023/02/02 00:56:33;;;;;;;17.65;2.70;;;4.40;99.90;;;;;;14847850;23;20039;-86
2023/02/02 01:02:35;;;;;;;19.00;3.00;;;4.40;99.90;;;;;;14886573;23;20055;-86
2023/02/02 01:08:37;;;;;;;17.42;2.50;;;4.40;99.90;;;;;;14892898;23;20641;-87
2023/02/02 01:14:39;;;;;;;21.70;2.63;;;4.50;99.90;;;;;;14894127;23;20030;-86
2023/02/02 01:20:41;;;;;;;24.40;3.28;;;4.50;99.90;;;;;;14883914;23;20035;-86
2023/02/02 01:26:43;;;;;;;23.10;3.65;;;4.50;99.90;;;;;;14918673;23;20024;-86
2023/02/02 01:32:45;;;;;;;18.35;2.35;;;4.40;99.90;;;;;;14889358;23;20027;-86
2023/02/02 01:38:48;;;;;;;16.77;3.72;;;4.30;99.90;;;;;;14890438;23;20020;-86
2023/02/02 01:45:20;;;;;;;15.20;2.20;;;4.30;99.90;;;;;;14912949;23;20031;-85
2023/02/02 01:51:28;;;;;;;22.75;2.58;;;4.20;99.90;;;;;;14892828;23;20027;-86
2023/02/02 01:57:45;;;;;;;19.23;2.42;;;4.20;99.90;;;;;;14890236;23;20390;-85
2023/02/02 02:03:47;;;;;;;15.18;2.22;;;4.20;99.90;;;;;;14881701;23;20023;-86
2023/02/02 02:09:49;;;;;;;17.92;2.20;;;4.20;99.90;;;;;;14892519;23;20031;-85
2023/02/02 02:16:19;;;;;;;20.17;2.20;;;4.20;99.90;;;;;;14892813;23;20028;-86
2023/02/02 02:29:31;;;;;;;16.98;3.05;;;4.20;99.90;;;;;;14912997;23;20345;-86
2023/02/02 02:35:58;;;;;;;22.98;2.20;;;4.20;99.90;;;;;;14870749;23;20026;-85
2023/02/02 02:42:09;;;;;;;17.17;2.08;;;4.30;99.90;;;;;;14890125;23;20034;-86
2023/02/02 02:48:11;;;;;;;13.95;2.75;;;4.40;99.90;;;;;;14887061;23;20036;-86
2023/02/02 02:54:18;;;;;;;15.85;2.08;;;4.40;99.90;;;;;;14884905;23;20046;-86
2023/02/02 03:01:02;;;;;;;17.80;2.22;;;4.40;99.90;;;;;;14843948;23;20116;-86
2023/02/02 03:07:12;;;;;;;14.73;2.13;;;4.50;99.90;;;;;;14792048;23;20106;-85
2023/02/02 03:13:15;;;;;;;16.08;2.03;;;4.50;99.90;;;;;;14846328;23;20065;-86
2023/02/02 03:19:18;;;;;;;27.17;2.55;;;4.50;99.90;;;;;;14843876;23;20028;-86
2023/02/02 03:25:19;;;;;;;15.63;2.25;;;4.50;99.90;;;;;;14848210;23;20024;-83
2023/02/02 03:31:22;;;;;;;20.23;2.65;;;4.60;99.90;;;;;;14847922;23;20040;-85
2023/02/02 03:37:25;;;;;;;12.75;3.03;;;4.60;99.90;;;;;;14853218;24;20334;-85
2023/02/02 03:43:26;;;;;;;16.58;2.53;;;4.70;99.90;;;;;;14842043;23;20092;-85
2023/02/02 03:49:28;;;;;;;17.30;2.08;;;4.80;99.90;;;;;;14849661;24;20020;-85
2023/02/02 03:55:30;;;;;;;15.82;2.80;;;4.80;99.90;;;;;;14845819;23;20057;-85
2023/02/02 04:01:32;;;;;;;17.50;2.70;;;4.80;99.90;;;;;;14843945;23;20441;-85
2023/02/02 04:07:34;;;;;;;14.73;2.50;;;4.90;99.90;;;;;;14847761;23;20047;-85
2023/02/02 04:13:36;;;;;;;17.25;2.35;;;4.90;99.90;;;;;;14841038;23;20035;-84
2023/02/02 04:19:38;;;;;;;14.65;2.13;;;4.90;99.90;;;;;;14847589;24;20450;-85
2023/02/02 04:25:49;;;;;;;15.25;2.00;;;4.90;99.90;;;;;;14820487;24;20051;-84
2023/02/02 04:31:51;;;;;;;12.25;1.90;;;5.00;99.90;;;;;;14841363;23;20032;-85
2023/02/02 04:37:54;;;;;;;10.43;1.95;;;4.90;99.90;;;;;;14845724;24;20567;-84
2023/02/02 04:43:56;;;;;;;12.73;1.92;;;5.00;99.90;;;;;;14843346;23;20369;-84
2023/02/02 04:49:58;;;;;;;14.32;1.92;;;4.80;99.90;;;;;;14839150;24;20087;-85
2023/02/02 04:56:07;;;;;;;20.38;3.00;;;4.90;99.90;;;;;;14844524;23;20528;-85
2023/02/02 05:02:09;;;;;;;13.10;2.97;;;4.90;99.90;;;;;;14774504;24;20058;-85
2023/02/02 05:08:11;;;;;;;19.58;2.33;;;5.00;99.90;;;;;;14773914;24;20474;-85
2023/02/02 05:14:15;;;;;;;18.88;2.63;;;4.90;99.90;;;;;;14773141;24;20149;-85
2023/02/02 05:20:17;;;;;;;21.67;2.90;;;4.90;99.90;;;;;;14770119;24;20052;-85
2023/02/02 05:26:23;;;;;;;16.38;2.40;;;5.00;99.90;;;;;;14775266;24;20171;-85
2023/02/02 05:32:27;;;;;;;14.52;2.75;;;5.10;99.90;;;;;;14774862;24;20476;-85
2023/02/02 05:38:29;;;;;;;15.65;2.83;;;5.10;99.90;;;;;;14776885;24;20020;-85
2023/02/02 05:44:31;;;;;;;16.38;3.05;;;5.10;99.90;;;;;;14773611;24;20029;-85
2023/02/02 05:50:33;;;;;;;14.70;2.40;;;5.20;99.90;;;;;;14771395;24;20033;-85
2023/02/02 05:56:35;;;;;;;20.00;2.17;;;5.20;99.90;;;;;;14788913;23;20476;-85
2023/02/02 06:02:37;;;;;;;14.10;2.08;;;5.20;99.90;;;;;;14889099;23;20024;-85
2023/02/02 06:08:39;;;;;;;16.30;2.53;;;5.20;99.90;;;;;;14886853;23;20031;-84
2023/02/02 06:14:41;;;;;;;20.67;2.13;;;5.10;99.90;;;;;;14892911;23;20020;-84
2023/02/02 06:20:43;;;;;;;10.73;1.73;;;5.10;99.90;;;;;;14910808;23;20031;-85
2023/02/02 06:26:45;;;;;;;8.95;1.40;;;5.10;99.90;;;;;;14914091;23;20063;-85
2023/02/02 06:32:47;;;;;;;17.48;1.42;;;5.10;99.90;;;;;;14890802;23;20042;-84
2023/02/02 06:38:53;;;;;;;8.27;1.10;;;5.10;99.90;;;;;;14914247;23;20023;-85
2023/02/02 06:44:58;;;;;;;4.95;1.10;;;4.90;99.90;;;;;;14890131;23;20027;-84
2023/02/02 06:51:01;;;;;;;11.60;1.92;;;4.90;99.90;;;;;;14886752;23;20091;-86
2023/02/02 06:57:04;;;;;;;13.00;1.30;;;4.80;99.90;;;;;;14887274;23;20454;-85
2023/02/02 07:03:08;;;;;;;10.23;0.95;;;4.60;99.90;;;;;;14893372;23;20019;-86
2023/02/02 07:09:10;;;;;;;7.03;1.27;;;4.50;99.90;;;;;;14887549;23;20607;-85
2023/02/02 07:15:12;;;;;;;7.10;1.00;;;4.50;99.90;;;;;;14895603;23;20031;-85
2023/02/02 07:21:19;;;;;;;8.75;1.30;;;4.50;99.90;;;;;;14919031;23;20028;-85
2023/02/02 07:27:21;;;;;;;7.70;1.50;;;4.50;99.90;;;;;;14894224;23;20163;-85
2023/02/02 07:33:23;;;;;;;5.90;0.95;;;4.50;99.90;;;;;;14891280;23;20031;-85
2023/02/02 07:39:26;;;;;;;9.20;1.37;;;4.40;99.90;;;;;;14896660;23;20099;-85
2023/02/02 07:45:28;;;;;;;7.15;1.88;;;4.30;99.90;;;;;;14918291;23;20115;-85
2023/02/02 07:51:30;;;;;;;9.13;1.20;;;4.30;99.90;;;;;;14891302;23;20646;-85
2023/02/02 07:57:32;;;;;;;5.68;0.90;;;4.30;99.90;;;;;;14891262;23;20084;-84
2023/02/02 08:03:34;;;;;;;7.50;1.05;;;4.30;99.90;;;;;;14893447;23;20027;-84
2023/02/02 08:09:37;;;;;;;10.10;1.17;;;4.20;99.90;;;;;;14918947;23;20094;-85
2023/02/02 08:15:39;;;;;;;7.68;1.02;;;4.30;99.90;;;;;;14891996;23;20019;-85
2023/02/02 08:21:41;;;;;;;11.13;2.03;;;4.20;99.90;;;;;;14918843;23;20051;-85
2023/02/02 08:27:42;;;;;;;9.20;1.35;;;4.10;99.90;;;;;;14894477;23;20032;-85
2023/02/02 08:33:45;;;;;;;7.05;1.00;;;4.10;99.90;;;;;;14890534;23;20107;-85
2023/02/02 08:39:47;;;;;;;7.22;1.33;;;4.10;99.90;;;;;;14890098;23;20049;-85
2023/02/02 08:45:49;;;;;;;3.85;0.80;;;4.10;99.90;;;;;;14884401;23;20031;-85
2023/02/02 08:52:13;;;;;;;;;;;4.10;99.90;;;;;;14894125;23;20054;-85
2023/02/02 08:58:15;;;;;;;8.20;1.25;;;4.20;99.90;;;;;;14916663;23;19997;-86
2023/02/02 09:04:17;;;;;;;12.82;1.55;;;4.10;99.90;;;;;;14892262;23;20102;-85
2023/02/02 09:10:19;;;;;;;5.75;1.50;;;4.10;99.90;;;;;;14891969;23;20353;-85
2023/02/02 09:16:21;;;;;;;8.07;1.48;;;4.20;99.90;;;;;;14921821;23;20056;-85
2023/02/02 09:22:23;;;;;;;7.47;1.40;;;4.20;99.90;;;;;;14892249;23;20034;-85
2023/02/02 09:28:26;;;;;;;10.32;1.35;;;4.10;99.90;;;;;;14893681;23;20075;-88
2023/02/02 09:34:28;;;;;;;11.95;1.50;;;4.20;99.90;;;;;;14893203;23;21987;-88
2023/02/02 09:40:33;;;;;;;5.32;1.10;;;4.20;99.90;;;;;;14919310;23;20053;-88
2023/02/02 09:47:12;;;;;;;6.70;1.98;;;4.30;99.90;;;;;;14899557;23;20024;-88
2023/02/02 09:53:24;;;;;;;9.95;1.30;;;4.40;99.90;;;;;;14890365;23;20024;-88
2023/02/02 09:59:30;;;;;;;11.55;1.63;;;4.50;99.90;;;;;;14895051;23;20116;-89
2023/02/02 10:06:13;;;;;;;4.93;1.00;;;4.50;99.90;;;;;;14910885;23;20059;-88
2023/02/02 10:12:24;;;;;;;8.98;1.50;;;4.70;99.90;;;;;;14857503;23;20103;-88
2023/02/02 10:18:45;;;;;;;7.38;1.38;;;4.60;99.90;;;;;;14891737;23;20118;-88
2023/02/02 10:24:47;;;;;;;12.60;2.38;;;4.70;99.90;;;;;;14886370;23;20032;-88
2023/02/02 10:30:58;;;;;;;5.00;0.90;;;4.80;99.90;;;;;;14892113;23;20020;-88
2023/02/02 10:37:25;;;;;;;6.90;1.20;;;4.80;99.90;;;;;;14898115;23;20346;-88
2023/02/02 10:43:47;;;;;;;10.15;1.85;;;4.90;99.90;;;;;;14897721;23;20107;-88
2023/02/02 10:50:14;;;;;;;11.98;1.77;;;4.90;99.90;;;;;;14897875;23;20107;-89
2023/02/02 10:56:20;;;;;;;10.48;2.00;;;5.00;99.90;;;;;;14924137;23;20016;-88
2023/02/02 11:02:22;;;;;;;11.05;1.80;;;5.20;99.90;;;;;;14896898;23;20079;-88
2023/02/02 11:08:31;;;;;;;7.43;1.52;;;5.20;99.90;;;;;;14892883;23;20081;-88
2023/02/02 11:14:42;;;;;;;7.38;1.65;;;5.20;99.90;;;;;;14896720;23;20117;-88
2023/02/02 11:20:46;;;;;;;9.40;1.50;;;5.30;99.90;;;;;;14900887;23;20020;-88
2023/02/02 11:27:00;;;;;;;5.90;1.20;;;5.40;99.90;;;;;;14905058;23;20540;-87
2023/02/02 11:33:41;;;;;;;9.38;1.95;;;5.50;99.90;;;;;;14893466;23;20039;-88
2023/02/02 11:39:43;;;;;;;8.45;1.17;;;5.40;99.90;;;;;;14616376;24;20108;-87
2023/02/02 11:45:51;;;;;;;5.35;1.15;;;5.60;99.90;;;;;;14886978;23;20080;-87
2023/02/02 11:51:58;;;;;;;9.88;1.40;;;5.60;99.90;;;;;;14889985;23;20028;-88
2023/02/02 11:58:23;;;;;;;12.65;1.75;;;5.70;99.90;;;;;;14887091;23;20028;-87
2023/02/02 12:04:26;;;;;;;11.80;1.70;;;5.70;99.90;;;;;;14895441;23;20024;-87
2023/02/02 12:11:01;;;;;;;6.43;1.40;;;5.70;99.90;;;;;;14892502;23;20020;-87
2023/02/02 12:17:17;;;;;;;8.23;1.60;;;5.70;99.90;;;;;;14873502;23;20035;-87
2023/02/02 12:23:33;;;;;;;9.13;1.15;;;5.70;99.90;;;;;;14892627;23;20051;-87
2023/02/02 12:29:57;;;;;;;7.72;1.30;;;5.80;99.90;;;;;;14894878;23;20079;-87
2023/02/02 12:36:28;;;;;;;7.28;1.40;;;5.90;99.90;;;;;;14894628;23;20038;-88
2023/02/02 12:43:03;;;;;;;13.88;2.85;;;6.00;99.90;;;;;;14887439;23;20357;-87
2023/02/02 12:49:36;;;;;;;5.57;1.30;;;6.00;99.90;;;;;;14818211;23;20022;-87
2023/02/02 12:55:52;;;;;;;10.23;3.17;;;6.00;99.90;;;;;;14890831;23;20020;-87
2023/02/02 13:02:09;;;;;;;7.72;1.13;;;5.90;99.90;;;;;;14891351;23;20023;-87
2023/02/02 13:08:29;;;;;;;11.10;1.60;;;5.90;99.90;;;;;;14895296;23;20461;-87
2023/02/02 13:15:01;;;;;;;8.93;1.50;;;5.80;99.90;;;;;;14895221;23;20038;-87
2023/02/02 13:21:11;;;;;;;9.45;1.95;;;5.70;99.90;;;;;;14893328;23;20031;-88
2023/02/02 13:27:17;;;;;;;11.45;1.50;;;5.70;99.90;;;;;;14896800;23;20075;-87
2023/02/02 13:33:34;;;;;;;12.43;1.92;;;5.70;99.90;;;;;;14891972;23;20059;-87
2023/02/02 13:39:43;;;;;;;14.35;2.70;;;5.60;99.90;;;;;;14892451;23;20130;-87
2023/02/02 13:46:12;;;;;;;14.15;1.98;;;5.50;99.90;;;;;;14873724;23;20111;-87
2023/02/02 13:52:27;;;;;;;10.52;1.88;;;5.40;99.90;;;;;;14890589;23;20039;-87
2023/02/02 13:58:36;;;;;;;;;;;5.40;99.90;;;;;;14894207;23;20024;-87
2023/02/02 14:04:38;;;;;;;9.85;1.60;;;5.30;99.90;;;;;;14890114;23;19918;-87
2023/02/02 14:10:52;;;;;;;13.40;2.00;;;5.30;99.90;;;;;;14916907;23;20023;-87
2023/02/02 14:16:55;;;;;;;10.57;1.93;;;5.30;99.90;;;;;;14916937;23;20023;-87
2023/02/02 14:22:57;;;;;;;13.27;1.92;;;5.20;99.90;;;;;;14890115;23;20027;-86
2023/02/02 14:28:59;;;;;;;13.60;1.98;;;5.20;99.90;;;;;;14888805;23;20533;-87
2023/02/02 14:35:10;;;;;;;13.90;2.33;;;5.10;99.90;;;;;;14915516;23;20030;-87
2023/02/02 14:48:07;;;;;;;12.93;2.55;;;4.90;99.90;;;;;;14918289;23;20111;-87
2023/02/02 14:54:19;;;;;;;10.90;2.63;;;4.90;99.90;;;;;;14886088;23;20040;-87
2023/02/02 15:00:25;;;;;;;10.80;2.38;;;4.80;99.90;;;;;;14843328;23;20039;-87
2023/02/02 15:06:35;;;;;;;9.43;2.15;;;4.70;99.90;;;;;;14841155;24;20027;-87
2023/02/02 15:12:44;;;;;;;11.80;1.85;;;4.60;99.90;;;;;;14846143;23;20024;-87
2023/02/02 15:18:58;;;;;;;7.85;1.70;;;4.50;99.90;;;;;;14849910;24;20016;-88
2023/02/02 15:25:11;;;;;;;8.73;2.15;;;4.50;99.90;;;;;;14850646;23;20106;-88
2023/02/02 15:31:34;;;;;;;8.77;2.50;;;4.50;99.90;;;;;;14843933;23;20036;-88
2023/02/02 15:37:43;;;;;;;9.20;2.85;;;4.50;99.90;;;;;;14849364;24;20050;-88
2023/02/02 15:43:46;;;;;;;7.43;3.10;;;4.50;99.90;;;;;;14843821;23;20065;-88
2023/02/02 15:49:48;;;;;;;10.85;3.97;;;4.50;99.90;;;;;;14849279;24;20115;-88
2023/02/02 15:55:50;;;;;;;12.50;3.92;;;4.50;99.90;;;;;;14850234;23;20465;-87
2023/02/02 16:02:00;;;;;;;6.70;3.47;;;4.40;99.90;;;;;;14841795;23;20024;-88
2023/02/02 16:08:26;;;;;;;11.50;4.25;;;4.40;99.90;;;;;;14847115;24;20026;-88
2023/02/02 16:14:31;;;;;;;10.52;4.95;;;4.40;99.90;;;;;;14848040;23;20028;-88
2023/02/02 16:20:36;;;;;;;13.88;6.45;;;4.40;99.90;;;;;;14849957;23;20523;-88
2023/02/02 16:26:37;;;;;;;;;;;4.30;99.90;;;;;;14850320;24;20032;-88
2023/02/02 16:32:40;;;;;;;13.80;7.18;;;4.30;99.90;;;;;;14847198;23;19925;-87
2023/02/02 16:38:44;;;;;;;13.52;8.30;;;4.30;99.90;;;;;;14851240;24;20028;-87
2023/02/02 16:44:47;;;;;;;17.23;9.30;;;4.20;99.90;;;;;;14842707;23;20020;-88
2023/02/02 16:51:07;;;;;;;15.63;9.75;;;4.30;99.90;;;;;;14848146;23;20030;-87
2023/02/02 16:57:19;;;;;;;18.02;10.27;;;4.20;99.90;;;;;;14856773;23;20049;-88
2023/02/02 17:03:23;;;;;;;20.13;11.73;;;4.30;99.90;;;;;;14893081;23;20480;-88
2023/02/02 17:09:42;;;;;;;19.50;11.43;;;4.20;99.90;;;;;;14893012;23;20024;-87
2023/02/02 17:15:51;;;;;;;19.55;11.05;;;4.20;99.90;;;;;;14894860;23;20536;-87
2023/02/02 17:21:54;;;;;;;16.98;10.35;;;4.20;99.90;;;;;;14891341;23;20080;-87
2023/02/02 17:27:57;;;;;;;17.75;11.18;;;4.20;99.90;;;;;;14895806;23;20034;-87
2023/02/02 17:33:59;;;;;;;17.70;10.32;;;4.10;99.90;;;;;;14913155;23;20030;-87
2023/02/02 17:40:01;;;;;;;15.70;9.88;;;4.10;99.90;;;;;;14892858;23;20027;-87
2023/02/02 17:46:03;;;;;;;17.45;9.93;;;4.00;99.90;;;;;;14894581;23;20409;-88
2023/02/02 17:52:09;;;;;;;16.10;9.47;;;4.00;99.90;;;;;;14895688;23;20035;-87
2023/02/02 17:58:15;;;;;;;16.33;9.90;;;4.00;99.90;;;;;;14894938;23;20024;-88
2023/02/02 18:04:17;;;;;;;15.05;9.57;;;4.10;99.90;;;;;;14898759;23;20044;-88
2023/02/02 18:10:23;;;;;;;15.95;10.00;;;4.10;99.90;;;;;;14894556;23;20107;-88
2023/02/02 18:16:25;;;;;;;16.10;9.80;;;4.00;99.90;;;;;;14898990;23;20055;-88
2023/02/02 18:22:28;;;;;;;15.27;9.32;;;4.00;99.90;;;;;;14897216;23;20072;-88
2023/02/02 18:28:30;;;;;;;18.42;10.77;;;4.20;99.90;;;;;;14898685;23;20028;-88
2023/02/02 18:34:34;;;;;;;23.38;10.23;;;4.20;99.90;;;;;;14892695;23;20024;-88
2023/02/02 18:40:36;;;;;;;18.90;11.10;;;4.20;99.90;;;;;;14897803;23;20039;-88
2023/02/02 18:46:38;;;;;;;20.00;11.75;;;4.20;99.90;;;;;;14896942;23;20456;-88
2023/02/02 18:52:40;;;;;;;20.40;12.13;;;4.30;99.90;;;;;;14901101;23;20102;-88
2023/02/02 18:58:43;;;;;;;20.70;12.40;;;4.40;99.90;;;;;;14901504;23;20107;-87
2023/02/02 19:11:18;;;;;;;19.42;12.27;;;4.50;99.90;;;;;;14926168;23;20024;-88
2023/02/02 19:17:23;;;;;;;21.88;13.27;;;4.60;99.90;;;;;;14925969;23;20019;-88
2023/02/02 19:23:31;;;;;;;21.27;12.60;;;4.60;99.90;;;;;;14893690;23;20334;-89
2023/02/02 19:29:37;;;;;;;22.48;12.35;;;4.70;99.90;;;;;;14894789;23;20023;-88
2023/02/02 19:35:43;;;;;;;25.13;13.63;;;4.80;99.90;;;;;;14894541;23;20106;-88
2023/02/02 19:41:46;;;;;;;27.60;13.55;;;4.80;99.90;;;;;;14895651;23;20020;-88
2023/02/02 19:47:52;;;;;;;25.05;14.23;;;4.80;99.90;;;;;;14920085;23;20104;-88
2023/02/02 19:53:59;;;;;;;30.65;15.27;;;4.90;99.90;;;;;;14888201;23;20063;-88
2023/02/02 20:00:21;;;;;;;24.40;13.00;;;4.90;99.90;;;;;;14895625;23;20034;-88
2023/02/02 20:06:29;;;;;;;25.17;12.80;;;5.30;99.90;;;;;;14914864;23;20061;-88
2023/02/02 20:12:31;;;;;;;20.35;11.95;;;5.40;99.90;;;;;;14893018;23;20414;-88
2023/02/02 20:18:43;;;;;;;20.92;11.75;;;5.60;99.90;;;;;;14896635;23;20144;-88
2023/02/02 20:24:47;;;;;;;20.50;11.82;;;5.60;99.90;;;;;;14893879;23;20034;-88
2023/02/02 20:30:49;;;;;;;24.10;12.73;;;5.70;99.90;;;;;;14890834;23;20093;-89
2023/02/02 20:36:57;;;;;;;24.70;13.80;;;5.70;99.90;;;;;;14921274;23;20075;-88
2023/02/02 20:43:00;;;;;;;24.23;14.20;;;5.80;99.90;;;;;;14897173;23;20023;-88
2023/02/02 20:49:06;;;;;;;24.17;12.77;;;5.90;99.90;;;;;;14903202;23;20098;-88
2023/02/02 20:55:08;;;;;;;21.40;11.27;;;5.90;99.90;;;;;;14896270;23;20090;-87
2023/02/02 21:01:11;;;;;;;18.83;11.02;;;6.10;99.90;;;;;;14847927;23;20024;-88
2023/02/02 21:07:16;;;;;;;20.23;11.65;;;6.30;99.90;;;;;;14847465;24;20020;-87
2023/02/02 21:13:17;;;;;;;21.83;11.88;;;6.40;99.90;;;;;;14845240;23;20026;-87
2023/02/02 21:19:20;;;;;;;25.85;12.95;;;6.40;99.90;;;;;;14848838;24;20069;-88
2023/02/02 21:25:23;;;;;;;30.85;15.43;;;6.60;99.90;;;;;;14843132;23;20156;-88
2023/02/02 21:31:26;;;;;;;30.65;16.20;;;6.70;99.90;;;;;;14848736;23;20040;-87
2023/02/02 21:37:29;;;;;;;32.30;17.55;;;6.70;99.90;;;;;;14858610;24;20024;-88
2023/02/02 21:43:32;;;;;;;32.40;18.63;;;6.80;99.90;;;;;;14848386;23;20026;-88
2023/02/02 21:49:38;;;;;;;31.80;17.42;;;6.80;99.90;;;;;;14856462;24;20031;-87
2023/02/02 21:55:43;;;;;;;30.30;17.83;;;6.90;99.90;;;;;;14857990;23;20032;-87
2023/02/02 22:01:47;;;;;;;30.98;17.88;;;6.90;99.90;;;;;;14887285;23;20020;-87
2023/02/02 22:07:52;;;;;;;30.30;17.20;;;7.00;99.90;;;;;;14909256;23;20019;-88
2023/02/02 22:14:30;;;;;;;31.50;17.90;;;7.00;99.90;;;;;;14900587;23;20031;-88
2023/02/02 22:20:35;;;;;;;27.38;16.52;;;7.00;99.90;;;;;;14874773;23;20035;-88
2023/02/02 22:26:38;;;;;;;27.75;16.50;;;7.10;99.90;;;;;;14906097;24;20445;-87
2023/02/02 22:32:41;;;;;;;25.60;16.10;;;7.10;99.90;;;;;;14864863;23;20035;-87
2023/02/02 22:38:43;;;;;;;26.67;16.83;;;7.20;99.90;;;;;;14866864;24;20024;-87
2023/02/02 22:44:46;;;;;;;28.00;17.83;;;7.20;99.90;;;;;;14862946;23;20465;-87
2023/02/02 22:50:48;;;;;;;31.80;19.50;;;7.20;99.90;;;;;;14847969;23;20020;-87
2023/02/02 22:56:50;;;;;;;26.90;18.55;;;7.20;99.90;;;;;;14862479;23;20083;-87
2023/02/02 23:02:53;;;;;;;22.63;16.20;;;7.30;99.90;;;;;;14893058;23;20071;-87
2023/02/02 23:08:55;;;;;;;28.70;17.50;;;7.30;99.90;;;;;;14899877;23;20034;-87
2023/02/02 23:14:57;;;;;;;25.92;16.15;;;7.30;99.90;;;;;;14902417;23;20138;-88
2023/02/02 23:20:59;;;;;;;39.78;18.05;;;7.30;99.90;;;;;;14902601;23;20031;-87
2023/02/02 23:27:01;;;;;;;27.83;17.17;;;7.30;99.90;;;;;;14905579;23;20028;-87
2023/02/02 23:33:03;;;;;;;30.45;17.10;;;7.40;99.90;;;;;;14900974;23;20028;-86
2023/02/02 23:39:05;;;;;;;27.35;17.38;;;7.30;99.90;;;;;;14906847;23;20461;-87
2023/02/02 23:45:08;;;;;;;26.73;17.23;;;7.40;99.90;;;;;;14901461;23;20055;-87
2023/02/02 23:51:10;;;;;;;25.75;16.38;;;7.50;99.90;;;;;;14922599;23;20335;-87
2023/02/02 23:57:12;;;;;;;22.67;15.82;;;7.50;99.90;;;;;;14896378;23;20055;-87
